sensor_id;sensor_type;location;lat;lon;timestamp;P1;durP1;ratioP1;P2;durP2;ratioP2
25922;SDS011;13725;51.170;4.442;2022-10-17T00:01:43;12.13;;;7.10;;
25922;SDS011;13725;51.170;4.442;2022-10-17T00:04:09;9.15;;;7.10;;
25922;SDS011;13725;51.170;4.442;2022-10-17T00:06:34;13.05;;;8.25;;
25922;SDS011;13725;51.170;4.442;2022-10-17T00:09:00;12.05;;;7.32;;
25922;SDS011;13725;51.170;4.442;2022-10-17T00:11:26;14.80;;;7.85;;
25922;SDS011;13725;51.170;4.442;2022-10-17T00:13:53;16.33;;;8.07;;
25922;SDS011;13725;51.170;4.442;2022-10-17T00:16:30;16.58;;;8.45;;
25922;SDS011;13725;51.170;4.442;2022-10-17T00:18:58;12.95;;;8.15;;
25922;SDS011;13725;51.170;4.442;2022-10-17T00:21:24;11.52;;;8.10;;
25922;SDS011;13725;51.170;4.442;2022-10-17T00:23:50;11.05;;;8.23;;
25922;SDS011;13725;51.170;4.442;2022-10-17T00:26:17;14.27;;;7.80;;
25922;SDS011;13725;51.170;4.442;2022-10-17T00:28:50;17.20;;;8.57;;
25922;SDS011;13725;51.170;4.442;2022-10-17T00:31:17;15.75;;;8.05;;
25922;SDS011;13725;51.170;4.442;2022-10-17T00:33:44;13.32;;;8.90;;
25922;SDS011;13725;51.170;4.442;2022-10-17T00:36:11;13.25;;;8.70;;
25922;SDS011;13725;51.170;4.442;2022-10-17T00:38:46;16.85;;;9.48;;
25922;SDS011;13725;51.170;4.442;2022-10-17T00:41:16;13.38;;;8.75;;
25922;SDS011;13725;51.170;4.442;2022-10-17T00:43:52;17.90;;;8.95;;
25922;SDS011;13725;51.170;4.442;2022-10-17T00:46:27;16.60;;;8.75;;
25922;SDS011;13725;51.170;4.442;2022-10-17T00:48:58;14.23;;;8.70;;
25922;SDS011;13725;51.170;4.442;2022-10-17T00:51:29;15.13;;;8.88;;
25922;SDS011;13725;51.170;4.442;2022-10-17T00:54:13;12.57;;;8.32;;
25922;SDS011;13725;51.170;4.442;2022-10-17T00:56:41;13.10;;;8.75;;
25922;SDS011;13725;51.170;4.442;2022-10-17T00:59:08;13.27;;;9.15;;
25922;SDS011;13725;51.170;4.442;2022-10-17T01:01:37;13.75;;;8.85;;
25922;SDS011;13725;51.170;4.442;2022-10-17T01:04:05;15.18;;;8.45;;
25922;SDS011;13725;51.170;4.442;2022-10-17T01:06:31;14.63;;;8.35;;
25922;SDS011;13725;51.170;4.442;2022-10-17T01:08:57;14.50;;;8.43;;
25922;SDS011;13725;51.170;4.442;2022-10-17T01:14:50;12.50;;;7.88;;
25922;SDS011;13725;51.170;4.442;2022-10-17T01:26:15;37.03;;;10.80;;
25922;SDS011;13725;51.170;4.442;2022-10-17T01:31:36;10.63;;;7.88;;
25922;SDS011;13725;51.170;4.442;2022-10-17T01:36:50;12.02;;;8.13;;
25922;SDS011;13725;51.170;4.442;2022-10-17T01:42:02;13.93;;;8.18;;
25922;SDS011;13725;51.170;4.442;2022-10-17T01:44:33;11.30;;;7.65;;
25922;SDS011;13725;51.170;4.442;2022-10-17T01:47:07;12.68;;;7.95;;
25922;SDS011;13725;51.170;4.442;2022-10-17T01:49:37;14.50;;;7.35;;
25922;SDS011;13725;51.170;4.442;2022-10-17T01:52:10;16.42;;;7.68;;
25922;SDS011;13725;51.170;4.442;2022-10-17T01:57:09;14.38;;;7.82;;
25922;SDS011;13725;51.170;4.442;2022-10-17T01:59:41;16.00;;;7.88;;
25922;SDS011;13725;51.170;4.442;2022-10-17T02:02:13;15.05;;;7.47;;
25922;SDS011;13725;51.170;4.442;2022-10-17T02:04:40;13.88;;;8.30;;
25922;SDS011;13725;51.170;4.442;2022-10-17T02:07:07;12.65;;;7.75;;
25922;SDS011;13725;51.170;4.442;2022-10-17T02:09:35;13.57;;;8.23;;
25922;SDS011;13725;51.170;4.442;2022-10-17T02:20:08;19.15;;;8.02;;
25922;SDS011;13725;51.170;4.442;2022-10-17T02:22:43;11.75;;;7.85;;
25922;SDS011;13725;51.170;4.442;2022-10-17T02:25:33;16.48;;;8.70;;
25922;SDS011;13725;51.170;4.442;2022-10-17T02:28:23;12.73;;;8.02;;
25922;SDS011;13725;51.170;4.442;2022-10-17T02:33:43;13.70;;;7.13;;
25922;SDS011;13725;51.170;4.442;2022-10-17T02:36:21;14.05;;;8.77;;
25922;SDS011;13725;51.170;4.442;2022-10-17T02:38:50;18.02;;;8.35;;
25922;SDS011;13725;51.170;4.442;2022-10-17T02:41:18;13.27;;;8.00;;
25922;SDS011;13725;51.170;4.442;2022-10-17T02:43:46;13.70;;;8.13;;
25922;SDS011;13725;51.170;4.442;2022-10-17T02:46:14;13.80;;;8.20;;
25922;SDS011;13725;51.170;4.442;2022-10-17T02:48:50;13.00;;;8.05;;
25922;SDS011;13725;51.170;4.442;2022-10-17T02:57:09;12.77;;;7.80;;
25922;SDS011;13725;51.170;4.442;2022-10-17T02:59:35;11.35;;;8.05;;
25922;SDS011;13725;51.170;4.442;2022-10-17T03:02:06;15.15;;;8.07;;
25922;SDS011;13725;51.170;4.442;2022-10-17T03:04:32;15.77;;;8.13;;
25922;SDS011;13725;51.170;4.442;2022-10-17T03:06:58;14.05;;;8.48;;
25922;SDS011;13725;51.170;4.442;2022-10-17T03:09:24;13.75;;;8.43;;
25922;SDS011;13725;51.170;4.442;2022-10-17T03:11:50;12.32;;;7.40;;
25922;SDS011;13725;51.170;4.442;2022-10-17T03:14:17;11.40;;;7.50;;
25922;SDS011;13725;51.170;4.442;2022-10-17T03:16:42;14.75;;;8.23;;
25922;SDS011;13725;51.170;4.442;2022-10-17T03:19:08;13.57;;;7.97;;
25922;SDS011;13725;51.170;4.442;2022-10-17T03:21:34;12.43;;;8.02;;
25922;SDS011;13725;51.170;4.442;2022-10-17T03:24:02;11.20;;;7.53;;
25922;SDS011;13725;51.170;4.442;2022-10-17T03:26:28;14.07;;;8.20;;
25922;SDS011;13725;51.170;4.442;2022-10-17T03:28:54;12.80;;;8.02;;
25922;SDS011;13725;51.170;4.442;2022-10-17T03:31:21;12.60;;;7.97;;
25922;SDS011;13725;51.170;4.442;2022-10-17T03:33:48;13.73;;;8.07;;
25922;SDS011;13725;51.170;4.442;2022-10-17T03:36:15;13.10;;;7.78;;
25922;SDS011;13725;51.170;4.442;2022-10-17T03:38:43;12.10;;;7.55;;
25922;SDS011;13725;51.170;4.442;2022-10-17T03:41:10;18.50;;;7.57;;
25922;SDS011;13725;51.170;4.442;2022-10-17T03:43:37;11.65;;;7.03;;
25922;SDS011;13725;51.170;4.442;2022-10-17T03:46:04;11.25;;;7.32;;
25922;SDS011;13725;51.170;4.442;2022-10-17T03:48:32;10.23;;;6.68;;
25922;SDS011;13725;51.170;4.442;2022-10-17T03:50:59;12.07;;;7.72;;
25922;SDS011;13725;51.170;4.442;2022-10-17T03:56:07;13.13;;;7.72;;
25922;SDS011;13725;51.170;4.442;2022-10-17T03:58:39;11.93;;;6.80;;
25922;SDS011;13725;51.170;4.442;2022-10-17T04:01:07;14.52;;;7.22;;
25922;SDS011;13725;51.170;4.442;2022-10-17T04:03:35;13.15;;;8.18;;
25922;SDS011;13725;51.170;4.442;2022-10-17T04:06:02;17.05;;;7.60;;
25922;SDS011;13725;51.170;4.442;2022-10-17T04:08:31;10.80;;;7.65;;
25922;SDS011;13725;51.170;4.442;2022-10-17T04:11:09;13.55;;;7.45;;
25922;SDS011;13725;51.170;4.442;2022-10-17T04:13:38;13.23;;;7.13;;
25922;SDS011;13725;51.170;4.442;2022-10-17T04:16:05;11.90;;;7.38;;
25922;SDS011;13725;51.170;4.442;2022-10-17T04:18:39;12.30;;;7.53;;
25922;SDS011;13725;51.170;4.442;2022-10-17T04:21:06;13.60;;;7.28;;
25922;SDS011;13725;51.170;4.442;2022-10-17T04:23:35;10.40;;;7.25;;
25922;SDS011;13725;51.170;4.442;2022-10-17T04:26:11;19.25;;;8.10;;
25922;SDS011;13725;51.170;4.442;2022-10-17T04:28:38;15.38;;;7.68;;
25922;SDS011;13725;51.170;4.442;2022-10-17T04:31:05;14.07;;;6.93;;
25922;SDS011;13725;51.170;4.442;2022-10-17T04:33:53;11.80;;;7.00;;
25922;SDS011;13725;51.170;4.442;2022-10-17T04:36:19;11.05;;;7.13;;
25922;SDS011;13725;51.170;4.442;2022-10-17T04:38:45;10.35;;;7.57;;
25922;SDS011;13725;51.170;4.442;2022-10-17T04:41:13;11.75;;;7.47;;
25922;SDS011;13725;51.170;4.442;2022-10-17T04:43:41;11.82;;;6.60;;
25922;SDS011;13725;51.170;4.442;2022-10-17T04:46:09;13.05;;;7.10;;
25922;SDS011;13725;51.170;4.442;2022-10-17T04:48:37;14.75;;;6.93;;
25922;SDS011;13725;51.170;4.442;2022-10-17T04:51:05;22.98;;;9.40;;
25922;SDS011;13725;51.170;4.442;2022-10-17T04:53:39;14.32;;;7.70;;
25922;SDS011;13725;51.170;4.442;2022-10-17T04:56:08;11.68;;;7.03;;
25922;SDS011;13725;51.170;4.442;2022-10-17T04:58:36;19.88;;;8.13;;
25922;SDS011;13725;51.170;4.442;2022-10-17T05:01:04;14.25;;;7.65;;
25922;SDS011;13725;51.170;4.442;2022-10-17T05:03:31;15.32;;;8.02;;
25922;SDS011;13725;51.170;4.442;2022-10-17T05:05:57;12.57;;;7.20;;
25922;SDS011;13725;51.170;4.442;2022-10-17T05:08:23;18.27;;;7.82;;
25922;SDS011;13725;51.170;4.442;2022-10-17T05:10:49;14.38;;;8.27;;
25922;SDS011;13725;51.170;4.442;2022-10-17T05:13:15;13.60;;;7.55;;
25922;SDS011;13725;51.170;4.442;2022-10-17T05:15:40;21.45;;;9.27;;
25922;SDS011;13725;51.170;4.442;2022-10-17T05:18:06;13.20;;;7.55;;
25922;SDS011;13725;51.170;4.442;2022-10-17T05:20:32;11.05;;;7.10;;
25922;SDS011;13725;51.170;4.442;2022-10-17T05:22:59;15.65;;;7.60;;
25922;SDS011;13725;51.170;4.442;2022-10-17T05:25:30;9.38;;;7.55;;
25922;SDS011;13725;51.170;4.442;2022-10-17T05:27:55;13.18;;;7.72;;
25922;SDS011;13725;51.170;4.442;2022-10-17T05:30:21;15.23;;;8.48;;
25922;SDS011;13725;51.170;4.442;2022-10-17T05:32:53;16.98;;;9.23;;
25922;SDS011;13725;51.170;4.442;2022-10-17T05:35:19;14.60;;;8.45;;
25922;SDS011;13725;51.170;4.442;2022-10-17T05:37:45;15.55;;;8.18;;
25922;SDS011;13725;51.170;4.442;2022-10-17T05:40:13;15.00;;;8.07;;
25922;SDS011;13725;51.170;4.442;2022-10-17T05:42:44;13.15;;;8.02;;
25922;SDS011;13725;51.170;4.442;2022-10-17T05:45:11;15.63;;;8.82;;
25922;SDS011;13725;51.170;4.442;2022-10-17T05:47:36;14.77;;;8.05;;
25922;SDS011;13725;51.170;4.442;2022-10-17T05:50:02;13.55;;;8.27;;
25922;SDS011;13725;51.170;4.442;2022-10-17T05:52:41;16.08;;;8.02;;
25922;SDS011;13725;51.170;4.442;2022-10-17T05:55:10;13.35;;;7.70;;
25922;SDS011;13725;51.170;4.442;2022-10-17T05:57:37;15.35;;;8.13;;
25922;SDS011;13725;51.170;4.442;2022-10-17T06:00:06;21.05;;;8.77;;
25922;SDS011;13725;51.170;4.442;2022-10-17T06:02:49;15.93;;;8.23;;
25922;SDS011;13725;51.170;4.442;2022-10-17T06:05:17;14.23;;;7.72;;
25922;SDS011;13725;51.170;4.442;2022-10-17T06:07:43;13.00;;;7.30;;
25922;SDS011;13725;51.170;4.442;2022-10-17T06:10:09;17.73;;;7.55;;
25922;SDS011;13725;51.170;4.442;2022-10-17T06:12:37;12.70;;;7.90;;
25922;SDS011;13725;51.170;4.442;2022-10-17T06:15:03;17.83;;;7.47;;
25922;SDS011;13725;51.170;4.442;2022-10-17T06:17:29;15.25;;;7.88;;
25922;SDS011;13725;51.170;4.442;2022-10-17T06:19:56;12.48;;;7.43;;
25922;SDS011;13725;51.170;4.442;2022-10-17T06:22:22;10.32;;;7.13;;
25922;SDS011;13725;51.170;4.442;2022-10-17T06:24:48;15.95;;;7.07;;
25922;SDS011;13725;51.170;4.442;2022-10-17T06:27:13;18.05;;;8.35;;
25922;SDS011;13725;51.170;4.442;2022-10-17T06:29:40;14.35;;;7.50;;
25922;SDS011;13725;51.170;4.442;2022-10-17T06:32:06;11.60;;;7.40;;
25922;SDS011;13725;51.170;4.442;2022-10-17T06:34:32;18.52;;;8.40;;
25922;SDS011;13725;51.170;4.442;2022-10-17T06:36:58;18.60;;;7.20;;
25922;SDS011;13725;51.170;4.442;2022-10-17T06:39:24;15.73;;;7.57;;
25922;SDS011;13725;51.170;4.442;2022-10-17T06:42:02;11.65;;;7.28;;
25922;SDS011;13725;51.170;4.442;2022-10-17T06:44:46;17.25;;;7.50;;
25922;SDS011;13725;51.170;4.442;2022-10-17T06:47:35;14.23;;;7.30;;
25922;SDS011;13725;51.170;4.442;2022-10-17T06:50:11;14.50;;;8.20;;
25922;SDS011;13725;51.170;4.442;2022-10-17T06:52:50;14.70;;;7.75;;
25922;SDS011;13725;51.170;4.442;2022-10-17T06:55:44;19.15;;;8.05;;
25922;SDS011;13725;51.170;4.442;2022-10-17T06:58:19;21.70;;;8.85;;
25922;SDS011;13725;51.170;4.442;2022-10-17T07:01:14;18.83;;;8.50;;
25922;SDS011;13725;51.170;4.442;2022-10-17T07:03:41;18.27;;;8.25;;
25922;SDS011;13725;51.170;4.442;2022-10-17T07:06:10;17.80;;;8.10;;
25922;SDS011;13725;51.170;4.442;2022-10-17T07:08:37;16.83;;;7.63;;
25922;SDS011;13725;51.170;4.442;2022-10-17T07:11:12;14.98;;;7.70;;
25922;SDS011;13725;51.170;4.442;2022-10-17T07:13:40;15.10;;;8.07;;
25922;SDS011;13725;51.170;4.442;2022-10-17T07:16:07;17.70;;;10.00;;
25922;SDS011;13725;51.170;4.442;2022-10-17T07:18:33;13.63;;;7.72;;
25922;SDS011;13725;51.170;4.442;2022-10-17T07:20:59;20.75;;;8.63;;
25922;SDS011;13725;51.170;4.442;2022-10-17T07:23:25;18.73;;;7.93;;
25922;SDS011;13725;51.170;4.442;2022-10-17T07:25:52;15.00;;;8.13;;
25922;SDS011;13725;51.170;4.442;2022-10-17T07:28:23;15.68;;;8.20;;
25922;SDS011;13725;51.170;4.442;2022-10-17T07:30:50;19.40;;;8.40;;
25922;SDS011;13725;51.170;4.442;2022-10-17T07:33:16;13.75;;;8.82;;
25922;SDS011;13725;51.170;4.442;2022-10-17T07:35:42;12.20;;;8.00;;
25922;SDS011;13725;51.170;4.442;2022-10-17T07:38:09;14.63;;;7.95;;
25922;SDS011;13725;51.170;4.442;2022-10-17T07:40:36;14.40;;;8.20;;
25922;SDS011;13725;51.170;4.442;2022-10-17T07:43:02;15.68;;;7.80;;
25922;SDS011;13725;51.170;4.442;2022-10-17T07:45:28;16.77;;;7.60;;
25922;SDS011;13725;51.170;4.442;2022-10-17T07:47:58;13.55;;;8.07;;
25922;SDS011;13725;51.170;4.442;2022-10-17T07:50:24;20.08;;;8.20;;
25922;SDS011;13725;51.170;4.442;2022-10-17T07:52:50;23.75;;;8.35;;
25922;SDS011;13725;51.170;4.442;2022-10-17T07:55:16;20.13;;;8.10;;
25922;SDS011;13725;51.170;4.442;2022-10-17T07:57:41;17.45;;;6.93;;
25922;SDS011;13725;51.170;4.442;2022-10-17T08:00:07;12.77;;;7.07;;
25922;SDS011;13725;51.170;4.442;2022-10-17T08:02:37;8.70;;;6.32;;
25922;SDS011;13725;51.170;4.442;2022-10-17T08:05:03;20.10;;;7.40;;
25922;SDS011;13725;51.170;4.442;2022-10-17T08:07:30;12.02;;;6.78;;
25922;SDS011;13725;51.170;4.442;2022-10-17T08:09:56;14.80;;;6.10;;
25922;SDS011;13725;51.170;4.442;2022-10-17T08:12:22;10.52;;;6.13;;
25922;SDS011;13725;51.170;4.442;2022-10-17T08:14:49;11.13;;;6.22;;
25922;SDS011;13725;51.170;4.442;2022-10-17T08:17:14;15.40;;;6.78;;
25922;SDS011;13725;51.170;4.442;2022-10-17T08:19:40;16.05;;;6.72;;
25922;SDS011;13725;51.170;4.442;2022-10-17T08:22:06;14.10;;;6.82;;
25922;SDS011;13725;51.170;4.442;2022-10-17T08:24:32;15.80;;;6.63;;
25922;SDS011;13725;51.170;4.442;2022-10-17T08:26:58;15.18;;;6.38;;
25922;SDS011;13725;51.170;4.442;2022-10-17T08:29:24;9.45;;;5.82;;
25922;SDS011;13725;51.170;4.442;2022-10-17T08:31:50;15.45;;;6.32;;
25922;SDS011;13725;51.170;4.442;2022-10-17T08:34:16;16.30;;;6.15;;
25922;SDS011;13725;51.170;4.442;2022-10-17T08:36:42;11.77;;;5.95;;
25922;SDS011;13725;51.170;4.442;2022-10-17T08:39:08;11.93;;;6.18;;
25922;SDS011;13725;51.170;4.442;2022-10-17T08:46:54;10.13;;;5.45;;
25922;SDS011;13725;51.170;4.442;2022-10-17T08:49:30;15.50;;;5.22;;
25922;SDS011;13725;51.170;4.442;2022-10-17T08:55:02;12.80;;;6.05;;
25922;SDS011;13725;51.170;4.442;2022-10-17T08:57:35;13.55;;;6.50;;
25922;SDS011;13725;51.170;4.442;2022-10-17T09:00:01;14.18;;;6.68;;
25922;SDS011;13725;51.170;4.442;2022-10-17T09:19:19;19.13;;;7.70;;
25922;SDS011;13725;51.170;4.442;2022-10-17T09:21:51;18.25;;;7.38;;
25922;SDS011;13725;51.170;4.442;2022-10-17T09:24:26;19.27;;;8.32;;
25922;SDS011;13725;51.170;4.442;2022-10-17T09:27:16;14.18;;;6.53;;
25922;SDS011;13725;51.170;4.442;2022-10-17T09:32:46;16.90;;;6.45;;
25922;SDS011;13725;51.170;4.442;2022-10-17T09:35:12;21.35;;;6.30;;
25922;SDS011;13725;51.170;4.442;2022-10-17T09:37:39;21.60;;;7.78;;
25922;SDS011;13725;51.170;4.442;2022-10-17T09:40:06;11.75;;;6.85;;
25922;SDS011;13725;51.170;4.442;2022-10-17T09:42:41;16.80;;;7.00;;
25922;SDS011;13725;51.170;4.442;2022-10-17T09:45:15;18.73;;;7.82;;
25922;SDS011;13725;51.170;4.442;2022-10-17T09:50:35;13.20;;;6.30;;
25922;SDS011;13725;51.170;4.442;2022-10-17T09:53:12;12.68;;;6.15;;
25922;SDS011;13725;51.170;4.442;2022-10-17T09:55:46;11.82;;;7.00;;
25922;SDS011;13725;51.170;4.442;2022-10-17T09:58:19;12.43;;;7.55;;
25922;SDS011;13725;51.170;4.442;2022-10-17T10:00:46;14.20;;;6.85;;
25922;SDS011;13725;51.170;4.442;2022-10-17T10:05:59;13.70;;;6.57;;
25922;SDS011;13725;51.170;4.442;2022-10-17T10:08:29;12.32;;;7.20;;
25922;SDS011;13725;51.170;4.442;2022-10-17T10:11:02;12.83;;;7.33;;
25922;SDS011;13725;51.170;4.442;2022-10-17T10:13:31;13.90;;;6.72;;
25922;SDS011;13725;51.170;4.442;2022-10-17T10:18:48;17.45;;;7.50;;
25922;SDS011;13725;51.170;4.442;2022-10-17T10:21:22;15.75;;;7.60;;
25922;SDS011;13725;51.170;4.442;2022-10-17T10:26:37;18.05;;;8.13;;
25922;SDS011;13725;51.170;4.442;2022-10-17T10:31:47;22.55;;;9.45;;
25922;SDS011;13725;51.170;4.442;2022-10-17T10:34:21;15.77;;;7.95;;
25922;SDS011;13725;51.170;4.442;2022-10-17T10:39:27;14.93;;;8.82;;
25922;SDS011;13725;51.170;4.442;2022-10-17T10:42:01;21.50;;;8.82;;
25922;SDS011;13725;51.170;4.442;2022-10-17T10:44:30;19.35;;;8.98;;
25922;SDS011;13725;51.170;4.442;2022-10-17T10:49:32;17.27;;;8.60;;
25922;SDS011;13725;51.170;4.442;2022-10-17T10:51:58;17.52;;;9.32;;
25922;SDS011;13725;51.170;4.442;2022-10-17T10:57:24;18.85;;;8.93;;
25922;SDS011;13725;51.170;4.442;2022-10-17T10:59:59;22.00;;;9.50;;
25922;SDS011;13725;51.170;4.442;2022-10-17T11:03:12;20.23;;;8.50;;
25922;SDS011;13725;51.170;4.442;2022-10-17T11:11:06;20.00;;;9.35;;
25922;SDS011;13725;51.170;4.442;2022-10-17T11:22:03;14.73;;;8.05;;
25922;SDS011;13725;51.170;4.442;2022-10-17T11:27:21;11.98;;;7.03;;
25922;SDS011;13725;51.170;4.442;2022-10-17T11:29:48;12.68;;;6.55;;
25922;SDS011;13725;51.170;4.442;2022-10-17T11:34:48;12.70;;;6.65;;
25922;SDS011;13725;51.170;4.442;2022-10-17T11:37:30;10.37;;;6.00;;
25922;SDS011;13725;51.170;4.442;2022-10-17T11:42:37;9.32;;;5.82;;
25922;SDS011;13725;51.170;4.442;2022-10-17T11:45:17;11.50;;;6.10;;
25922;SDS011;13725;51.170;4.442;2022-10-17T11:47:47;10.88;;;5.10;;
25922;SDS011;13725;51.170;4.442;2022-10-17T11:50:26;8.40;;;5.20;;
25922;SDS011;13725;51.170;4.442;2022-10-17T11:55:24;11.68;;;6.13;;
25922;SDS011;13725;51.170;4.442;2022-10-17T12:25:18;6.60;;;3.85;;
25922;SDS011;13725;51.170;4.442;2022-10-17T12:28:02;7.97;;;4.18;;
25922;SDS011;13725;51.170;4.442;2022-10-17T12:30:47;9.20;;;3.58;;
25922;SDS011;13725;51.170;4.442;2022-10-17T12:33:16;8.18;;;3.97;;
25922;SDS011;13725;51.170;4.442;2022-10-17T12:35:48;8.43;;;4.90;;
25922;SDS011;13725;51.170;4.442;2022-10-17T12:38:19;9.15;;;5.25;;
25922;SDS011;13725;51.170;4.442;2022-10-17T12:40:48;6.90;;;5.07;;
25922;SDS011;13725;51.170;4.442;2022-10-17T12:46:00;7.82;;;4.28;;
25922;SDS011;13725;51.170;4.442;2022-10-17T12:53:55;8.23;;;5.38;;
25922;SDS011;13725;51.170;4.442;2022-10-17T12:56:45;8.45;;;5.43;;
25922;SDS011;13725;51.170;4.442;2022-10-17T12:59:14;13.43;;;5.80;;
25922;SDS011;13725;51.170;4.442;2022-10-17T13:01:45;10.93;;;5.95;;
25922;SDS011;13725;51.170;4.442;2022-10-17T13:04:13;8.65;;;5.63;;
25922;SDS011;13725;51.170;4.442;2022-10-17T13:06:44;11.88;;;5.68;;
25922;SDS011;13725;51.170;4.442;2022-10-17T13:11:52;8.32;;;5.30;;
25922;SDS011;13725;51.170;4.442;2022-10-17T13:14:19;11.10;;;5.70;;
25922;SDS011;13725;51.170;4.442;2022-10-17T13:19:18;13.45;;;5.60;;
25922;SDS011;13725;51.170;4.442;2022-10-17T13:21:53;10.30;;;5.72;;
25922;SDS011;13725;51.170;4.442;2022-10-17T13:27:01;6.68;;;5.35;;
25922;SDS011;13725;51.170;4.442;2022-10-17T13:29:29;12.00;;;6.43;;
25922;SDS011;13725;51.170;4.442;2022-10-17T13:32:03;8.23;;;5.28;;
25922;SDS011;13725;51.170;4.442;2022-10-17T13:34:30;6.70;;;5.10;;
25922;SDS011;13725;51.170;4.442;2022-10-17T13:36:59;10.55;;;5.97;;
25922;SDS011;13725;51.170;4.442;2022-10-17T13:39:32;11.13;;;4.90;;
25922;SDS011;13725;51.170;4.442;2022-10-17T13:42:00;8.73;;;5.28;;
25922;SDS011;13725;51.170;4.442;2022-10-17T13:44:27;12.75;;;5.78;;
25922;SDS011;13725;51.170;4.442;2022-10-17T13:46:58;12.25;;;5.18;;
25922;SDS011;13725;51.170;4.442;2022-10-17T13:52:02;7.50;;;4.78;;
25922;SDS011;13725;51.170;4.442;2022-10-17T13:54:36;8.48;;;5.07;;
25922;SDS011;13725;51.170;4.442;2022-10-17T13:57:23;12.80;;;5.45;;
25922;SDS011;13725;51.170;4.442;2022-10-17T13:59:50;11.75;;;4.78;;
25922;SDS011;13725;51.170;4.442;2022-10-17T14:02:23;13.43;;;5.75;;
25922;SDS011;13725;51.170;4.442;2022-10-17T14:05:03;9.40;;;5.45;;
25922;SDS011;13725;51.170;4.442;2022-10-17T14:10:05;11.25;;;5.45;;
25922;SDS011;13725;51.170;4.442;2022-10-17T14:12:43;9.30;;;5.80;;
25922;SDS011;13725;51.170;4.442;2022-10-17T14:15:09;8.20;;;5.30;;
25922;SDS011;13725;51.170;4.442;2022-10-17T14:17:39;16.52;;;6.20;;
25922;SDS011;13725;51.170;4.442;2022-10-17T14:20:05;13.55;;;5.65;;
25922;SDS011;13725;51.170;4.442;2022-10-17T14:22:34;9.65;;;5.45;;
25922;SDS011;13725;51.170;4.442;2022-10-17T14:25:01;8.93;;;4.65;;
25922;SDS011;13725;51.170;4.442;2022-10-17T14:27:51;9.48;;;5.22;;
25922;SDS011;13725;51.170;4.442;2022-10-17T14:32:56;11.55;;;4.90;;
25922;SDS011;13725;51.170;4.442;2022-10-17T14:35:25;10.18;;;4.80;;
25922;SDS011;13725;51.170;4.442;2022-10-17T14:37:51;7.15;;;4.78;;
25922;SDS011;13725;51.170;4.442;2022-10-17T14:40:22;11.27;;;5.35;;
25922;SDS011;13725;51.170;4.442;2022-10-17T14:42:51;6.50;;;4.82;;
25922;SDS011;13725;51.170;4.442;2022-10-17T14:47:53;11.65;;;5.85;;
25922;SDS011;13725;51.170;4.442;2022-10-17T14:50:26;9.65;;;4.75;;
25922;SDS011;13725;51.170;4.442;2022-10-17T14:53:17;6.97;;;4.50;;
25922;SDS011;13725;51.170;4.442;2022-10-17T14:55:53;6.68;;;5.15;;
25922;SDS011;13725;51.170;4.442;2022-10-17T14:58:25;7.10;;;5.00;;
25922;SDS011;13725;51.170;4.442;2022-10-17T15:00:53;8.18;;;5.03;;
25922;SDS011;13725;51.170;4.442;2022-10-17T15:03:19;8.40;;;4.78;;
25922;SDS011;13725;51.170;4.442;2022-10-17T15:05:45;9.43;;;4.95;;
25922;SDS011;13725;51.170;4.442;2022-10-17T15:08:12;8.45;;;5.05;;
25922;SDS011;13725;51.170;4.442;2022-10-17T15:10:39;11.35;;;4.90;;
25922;SDS011;13725;51.170;4.442;2022-10-17T15:13:09;9.65;;;5.40;;
25922;SDS011;13725;51.170;4.442;2022-10-17T15:15:36;9.45;;;4.60;;
25922;SDS011;13725;51.170;4.442;2022-10-17T15:18:03;7.00;;;4.47;;
25922;SDS011;13725;51.170;4.442;2022-10-17T15:20:29;8.75;;;5.05;;
25922;SDS011;13725;51.170;4.442;2022-10-17T15:22:58;9.43;;;4.65;;
25922;SDS011;13725;51.170;4.442;2022-10-17T15:25:25;10.55;;;4.60;;
25922;SDS011;13725;51.170;4.442;2022-10-17T15:27:52;8.05;;;4.75;;
25922;SDS011;13725;51.170;4.442;2022-10-17T15:30:22;8.70;;;4.90;;
25922;SDS011;13725;51.170;4.442;2022-10-17T15:32:53;15.57;;;5.40;;
25922;SDS011;13725;51.170;4.442;2022-10-17T15:35:19;10.88;;;4.85;;
25922;SDS011;13725;51.170;4.442;2022-10-17T15:37:46;7.30;;;5.55;;
25922;SDS011;13725;51.170;4.442;2022-10-17T15:40:13;8.57;;;4.70;;
25922;SDS011;13725;51.170;4.442;2022-10-17T15:42:50;10.13;;;4.85;;
25922;SDS011;13725;51.170;4.442;2022-10-17T15:45:17;7.97;;;4.78;;
25922;SDS011;13725;51.170;4.442;2022-10-17T15:47:52;12.43;;;5.07;;
25922;SDS011;13725;51.170;4.442;2022-10-17T15:50:20;6.97;;;4.80;;
25922;SDS011;13725;51.170;4.442;2022-10-17T15:52:46;10.85;;;4.55;;
25922;SDS011;13725;51.170;4.442;2022-10-17T15:55:15;9.70;;;5.25;;
25922;SDS011;13725;51.170;4.442;2022-10-17T15:57:42;10.93;;;5.10;;
25922;SDS011;13725;51.170;4.442;2022-10-17T16:00:17;8.77;;;5.50;;
25922;SDS011;13725;51.170;4.442;2022-10-17T16:02:47;11.88;;;5.55;;
25922;SDS011;13725;51.170;4.442;2022-10-17T16:05:15;7.75;;;5.47;;
25922;SDS011;13725;51.170;4.442;2022-10-17T16:07:42;11.80;;;5.30;;
25922;SDS011;13725;51.170;4.442;2022-10-17T16:10:10;12.98;;;6.20;;
25922;SDS011;13725;51.170;4.442;2022-10-17T16:12:37;14.45;;;5.68;;
25922;SDS011;13725;51.170;4.442;2022-10-17T16:15:06;7.10;;;5.68;;
25922;SDS011;13725;51.170;4.442;2022-10-17T16:17:37;9.33;;;5.53;;
25922;SDS011;13725;51.170;4.442;2022-10-17T16:20:03;11.48;;;6.20;;
25922;SDS011;13725;51.170;4.442;2022-10-17T16:22:29;10.45;;;5.63;;
25922;SDS011;13725;51.170;4.442;2022-10-17T16:24:57;9.65;;;5.75;;
25922;SDS011;13725;51.170;4.442;2022-10-17T16:27:31;10.25;;;5.22;;
25922;SDS011;13725;51.170;4.442;2022-10-17T16:29:57;10.10;;;6.82;;
25922;SDS011;13725;51.170;4.442;2022-10-17T16:32:23;10.27;;;5.70;;
25922;SDS011;13725;51.170;4.442;2022-10-17T16:34:49;13.90;;;6.18;;
25922;SDS011;13725;51.170;4.442;2022-10-17T16:37:14;12.45;;;6.03;;
25922;SDS011;13725;51.170;4.442;2022-10-17T16:39:40;14.02;;;6.60;;
25922;SDS011;13725;51.170;4.442;2022-10-17T16:42:06;9.63;;;6.53;;
25922;SDS011;13725;51.170;4.442;2022-10-17T16:44:31;12.65;;;6.05;;
25922;SDS011;13725;51.170;4.442;2022-10-17T16:46:57;10.48;;;6.18;;
25922;SDS011;13725;51.170;4.442;2022-10-17T16:49:23;12.45;;;6.50;;
25922;SDS011;13725;51.170;4.442;2022-10-17T16:51:48;13.68;;;6.72;;
25922;SDS011;13725;51.170;4.442;2022-10-17T16:54:14;13.35;;;6.82;;
25922;SDS011;13725;51.170;4.442;2022-10-17T16:56:40;12.23;;;7.32;;
25922;SDS011;13725;51.170;4.442;2022-10-17T16:59:06;13.18;;;7.05;;
25922;SDS011;13725;51.170;4.442;2022-10-17T17:01:33;12.13;;;6.90;;
25922;SDS011;13725;51.170;4.442;2022-10-17T17:03:59;17.23;;;7.55;;
25922;SDS011;13725;51.170;4.442;2022-10-17T17:06:28;9.65;;;6.88;;
25922;SDS011;13725;51.170;4.442;2022-10-17T17:08:54;9.18;;;7.20;;
25922;SDS011;13725;51.170;4.442;2022-10-17T17:11:21;15.10;;;7.80;;
25922;SDS011;13725;51.170;4.442;2022-10-17T17:13:49;10.30;;;7.57;;
25922;SDS011;13725;51.170;4.442;2022-10-17T17:16:16;14.43;;;7.60;;
25922;SDS011;13725;51.170;4.442;2022-10-17T17:18:45;12.10;;;7.38;;
25922;SDS011;13725;51.170;4.442;2022-10-17T17:21:13;13.20;;;7.55;;
25922;SDS011;13725;51.170;4.442;2022-10-17T17:23:40;12.90;;;8.55;;
25922;SDS011;13725;51.170;4.442;2022-10-17T17:26:08;14.05;;;8.75;;
25922;SDS011;13725;51.170;4.442;2022-10-17T17:28:36;10.13;;;7.90;;
25922;SDS011;13725;51.170;4.442;2022-10-17T17:31:05;13.55;;;7.75;;
25922;SDS011;13725;51.170;4.442;2022-10-17T17:33:38;12.18;;;7.57;;
25922;SDS011;13725;51.170;4.442;2022-10-17T17:36:04;12.20;;;7.93;;
25922;SDS011;13725;51.170;4.442;2022-10-17T17:38:32;13.65;;;7.68;;
25922;SDS011;13725;51.170;4.442;2022-10-17T17:40:59;17.70;;;8.95;;